Time;durP1;ratioP1;P1;durP2;ratioP2;P2;SDS_P1;SDS_P2;PMS_P1;PMS_P2;Temp;Humidity;BMP_temperature;BMP_pressure;BME280_temperature;BME280_humidity;BME280_pressure;Samples;Min_cycle;Max_cycle;Signal;HPM_P1;HPM_P2
2022/07/06 00:01:41;;;;;;;;;;;15.10;99.90;;;;;;5038376;28;19976;-73
2022/07/06 00:04:07;;;;;;;;;;;15.10;99.90;;;;;;5038598;28;19909;-72
2022/07/06 00:06:32;;;;;;;;;;;15.10;99.90;;;;;;5041071;28;19928;-72
2022/07/06 00:08:58;;;;;;;;;;;15.10;99.90;;;;;;5041982;28;19991;-72
2022/07/06 00:11:24;;;;;;;;;;;15.10;99.90;;;;;;5038459;28;20397;-73
2022/07/06 00:13:50;;;;;;;;;;;15.10;99.90;;;;;;5036551;28;19912;-73
2022/07/06 00:16:16;;;;;;;;;;;15.20;99.90;;;;;;5036297;28;19917;-73
2022/07/06 00:18:42;;;;;;;;;;;15.10;99.90;;;;;;5036513;28;19912;-73
2022/07/06 00:21:07;;;;;;;;;;;15.10;99.90;;;;;;5036512;28;19905;-72
2022/07/06 00:23:33;;;;;;;;;;;15.10;99.90;;;;;;5036250;28;19904;-73
2022/07/06 00:25:58;;;;;;;;;;;15.10;99.90;;;;;;5035874;28;19951;-73
2022/07/06 00:28:24;;;;;;;;;;;15.10;99.90;;;;;;5036596;28;19982;-73
2022/07/06 00:30:50;;;;;;;;;;;15.10;99.90;;;;;;5036941;28;19959;-73
2022/07/06 00:33:16;;;;;;;;;;;15.10;99.90;;;;;;5036750;28;19920;-72
2022/07/06 00:35:42;;;;;;;;;;;15.00;99.90;;;;;;5036101;28;19905;-73
2022/07/06 00:38:08;;;;;;;;;;;15.10;99.90;;;;;;5035954;28;20213;-73
2022/07/06 00:40:33;;;;;;;;;;;15.10;99.90;;;;;;5035919;28;20263;-73
2022/07/06 00:42:59;;;;;;;;;;;15.10;99.90;;;;;;5035729;28;19909;-73
2022/07/06 00:45:24;;;;;;;;;;;15.10;99.90;;;;;;5036030;28;19912;-73
2022/07/06 00:47:50;;;;;;;;;;;15.20;99.90;;;;;;5036209;28;19905;-73
2022/07/06 00:50:22;;;;;;;;;;;15.10;99.90;;;;;;5035342;28;19996;-73
2022/07/06 00:52:53;;;;;;;;;;;15.10;99.90;;;;;;5035472;28;20366;-73
2022/07/06 00:55:20;;;;;;;;;;;15.10;99.90;;;;;;5035460;28;19955;-72
2022/07/06 00:57:46;;;;;;;;;;;15.10;99.90;;;;;;5035382;28;19979;-72
2022/07/06 01:00:13;;;;;;;;;;;15.20;99.90;;;;;;5035238;28;19950;-72
2022/07/06 01:02:38;;;;;;;;;;;15.10;99.90;;;;;;5034136;28;19905;-73
2022/07/06 01:05:05;;;;;;;;;;;15.10;99.90;;;;;;5035501;28;19976;-73
2022/07/06 01:07:30;;;;;;;;;;;15.10;99.90;;;;;;5036281;28;19952;-73
2022/07/06 01:09:56;;;;;;;;;;;15.00;99.90;;;;;;5035701;28;19905;-73
2022/07/06 01:12:22;;;;;;;;;;;15.00;99.90;;;;;;5035428;28;19912;-73
2022/07/06 01:14:48;;;;;;;;;;;15.00;99.90;;;;;;5035362;28;19991;-73
2022/07/06 01:17:13;;;;;;;;;;;15.00;99.90;;;;;;5035006;28;19944;-73
2022/07/06 01:19:39;;;;;;;;;;;15.00;99.90;;;;;;5035252;28;20389;-73
2022/07/06 01:22:05;;;;;;;;;;;15.10;99.90;;;;;;5034005;28;20365;-73
2022/07/06 01:24:30;;;;;;;;;;;15.10;99.90;;;;;;5035299;28;19955;-73
2022/07/06 01:26:57;;;;;;;;;;;15.10;99.90;;;;;;5033486;28;19912;-73
2022/07/06 01:29:22;;;;;;;;;;;15.10;99.90;;;;;;5035085;28;19967;-73
2022/07/06 01:31:49;;;;;;;;;;;15.10;99.90;;;;;;5035003;28;19994;-73
2022/07/06 01:34:15;;;;;;;;;;;15.10;99.90;;;;;;5034822;28;19909;-73
2022/07/06 01:36:41;;;;;;;;;;;15.10;99.90;;;;;;5063607;22;20004;-70
2022/07/06 01:39:07;;;;;;;;;;;15.10;99.90;;;;;;5021045;28;19948;-70
2022/07/06 01:41:33;;;;;;;;;;;15.10;99.90;;;;;;5016383;28;19911;-71
2022/07/06 01:43:58;;;;;;;;;;;15.10;99.90;;;;;;5015676;28;19905;-71
2022/07/06 01:46:24;;;;;;;;;;;15.10;99.90;;;;;;5014150;28;20381;-71
2022/07/06 01:48:49;;;;;;;;;;;15.10;99.90;;;;;;5002181;28;19905;-71
2022/07/06 01:51:15;;;;;;;;;;;15.10;99.90;;;;;;5005101;28;19906;-71
2022/07/06 01:53:41;;;;;;;;;;;15.10;99.90;;;;;;5006071;28;19905;-71
2022/07/06 01:56:07;;;;;;;;;;;15.10;99.90;;;;;;5013064;28;19913;-71
2022/07/06 01:58:32;;;;;;;;;;;15.20;99.90;;;;;;5006263;28;19941;-71
2022/07/06 02:00:58;;;;;;;;;;;15.10;99.90;;;;;;5004467;28;19913;-70
2022/07/06 02:03:23;;;;;;;;;;;15.10;99.90;;;;;;4993963;28;19927;-71
2022/07/06 02:05:49;;;;;;;;;;;15.00;99.90;;;;;;4988970;28;20286;-71
2022/07/06 02:08:14;;;;;;;;;;;15.00;99.90;;;;;;4994711;28;19905;-71
2022/07/06 02:10:40;;;;;;;;;;;15.00;99.90;;;;;;4996176;28;19960;-71
2022/07/06 02:13:05;;;;;;;;;;;14.90;99.90;;;;;;4997327;28;20397;-71
2022/07/06 02:15:31;;;;;;;;;;;14.90;99.90;;;;;;4995831;28;19905;-71
2022/07/06 02:17:56;;;;;;;;;;;14.90;99.90;;;;;;4995197;28;19913;-71
2022/07/06 02:20:22;;;;;;;;;;;14.90;99.90;;;;;;4994864;28;19960;-71
2022/07/06 02:22:47;;;;;;;;;;;14.90;99.90;;;;;;4994856;28;19968;-71
2022/07/06 02:25:13;;;;;;;;;;;14.90;99.90;;;;;;4994426;28;19910;-71
2022/07/06 02:27:38;;;;;;;;;;;14.90;99.90;;;;;;4995601;28;19912;-71
2022/07/06 02:30:05;;;;;;;;;;;14.90;99.90;;;;;;4996199;28;20260;-71
2022/07/06 02:32:31;;;;;;;;;;;14.90;99.90;;;;;;4996731;28;20310;-73
2022/07/06 02:34:56;;;;;;;;;;;15.00;99.90;;;;;;4996625;28;20008;-72
2022/07/06 02:37:22;;;;;;;;;;;14.90;99.90;;;;;;4995909;28;19997;-72
2022/07/06 02:39:47;;;;;;;;;;;14.90;99.90;;;;;;4996515;28;19905;-71
2022/07/06 02:42:13;;;;;;;;;;;14.90;99.90;;;;;;4997094;28;19910;-72
2022/07/06 02:44:38;;;;;;;;;;;14.90;99.90;;;;;;4996670;28;19905;-71
2022/07/06 02:47:04;;;;;;;;;;;15.00;99.90;;;;;;4996255;28;19960;-71
2022/07/06 02:49:29;;;;;;;;;;;15.00;99.90;;;;;;4996590;28;19906;-72
2022/07/06 02:51:55;;;;;;;;;;;15.00;99.90;;;;;;4996582;28;19980;-72
2022/07/06 02:54:20;;;;;;;;;;;15.00;99.90;;;;;;4996813;28;19914;-72
2022/07/06 02:56:50;;;;;;;;;;;14.90;99.90;;;;;;4997059;28;19914;-71
2022/07/06 02:59:16;;;;;;;;;;;14.90;99.90;;;;;;4997125;28;19910;-72
2022/07/06 03:01:42;;;;;;;;;;;14.90;99.90;;;;;;4996157;28;19956;-72
2022/07/06 03:04:07;;;;;;;;;;;14.90;99.90;;;;;;4998326;28;19906;-71
2022/07/06 03:06:33;;;;;;;;;;;14.80;99.90;;;;;;4999634;28;19961;-72
2022/07/06 03:08:58;;;;;;;;;;;14.80;99.90;;;;;;4999954;28;19937;-71
2022/07/06 03:11:24;;;;;;;;;;;14.90;99.90;;;;;;4999608;28;20398;-71
2022/07/06 03:13:49;;;;;;;;;;;14.80;99.90;;;;;;4998498;28;19906;-71
2022/07/06 03:16:15;;;;;;;;;;;14.80;99.90;;;;;;4999874;28;19910;-71
2022/07/06 03:18:40;;;;;;;;;;;14.80;99.90;;;;;;4998583;28;19905;-71
2022/07/06 03:21:06;;;;;;;;;;;14.80;99.90;;;;;;4999176;28;19909;-71
2022/07/06 03:23:31;;;;;;;;;;;14.80;99.90;;;;;;4996314;28;19913;-71
2022/07/06 03:25:57;;;;;;;;;;;14.80;99.90;;;;;;4996467;28;19906;-72
2022/07/06 03:28:22;;;;;;;;;;;14.80;99.90;;;;;;4998947;28;20290;-72
2022/07/06 03:30:48;;;;;;;;;;;14.80;99.90;;;;;;4999406;28;19913;-72
2022/07/06 03:33:13;;;;;;;;;;;14.80;99.90;;;;;;5000374;28;19910;-72
2022/07/06 03:35:39;;;;;;;;;;;14.80;99.90;;;;;;5002449;28;19964;-72
2022/07/06 03:38:04;;;;;;;;;;;14.80;99.90;;;;;;5005869;28;19913;-71
2022/07/06 03:40:30;;;;;;;;;;;14.80;99.90;;;;;;5004836;28;20003;-72
2022/07/06 03:42:55;;;;;;;;;;;14.90;99.90;;;;;;4999712;28;19906;-72
2022/07/06 03:45:21;;;;;;;;;;;14.90;99.90;;;;;;4999243;28;20252;-72
2022/07/06 03:47:46;;;;;;;;;;;14.90;99.90;;;;;;4999112;28;19997;-72
2022/07/06 03:50:12;;;;;;;;;;;14.90;99.90;;;;;;4999963;28;19929;-71
2022/07/06 03:52:39;;;;;;;;;;;14.90;99.90;;;;;;4998882;28;19906;-72
2022/07/06 03:55:14;;;;;;;;;;;14.90;99.90;;;;;;4999250;28;19992;-72
2022/07/06 03:57:40;;;;;;;;;;;14.90;99.90;;;;;;4997398;28;19965;-73
2022/07/06 04:00:07;;;;;;;;;;;14.90;99.90;;;;;;4998965;28;19905;-72
2022/07/06 04:02:32;;;;;;;;;;;14.90;99.90;;;;;;4999196;28;20282;-71
2022/07/06 04:04:58;;;;;;;;;;;14.90;99.90;;;;;;4999308;28;19906;-72
2022/07/06 04:07:24;;;;;;;;;;;14.90;99.90;;;;;;4999001;28;19937;-72
2022/07/06 04:09:50;;;;;;;;;;;14.90;99.90;;;;;;4999831;28;19905;-72
2022/07/06 04:12:15;;;;;;;;;;;14.90;99.90;;;;;;4999574;28;19964;-71
2022/07/06 04:14:41;;;;;;;;;;;14.90;99.90;;;;;;4999167;28;19913;-72
2022/07/06 04:19:50;;;;;;;;;;;14.90;99.90;;;;;;4998952;28;19912;-71
2022/07/06 04:22:16;;;;;;;;;;;14.90;99.90;;;;;;4997460;28;20356;-71
2022/07/06 04:24:42;;;;;;;;;;;14.90;99.90;;;;;;4997008;28;19906;-72
2022/07/06 04:27:07;;;;;;;;;;;14.90;99.90;;;;;;4999501;28;19923;-72
2022/07/06 04:29:33;;;;;;;;;;;14.90;99.90;;;;;;4998735;28;20323;-72
2022/07/06 04:31:58;;;;;;;;;;;15.00;99.90;;;;;;4998269;28;19906;-71
2022/07/06 04:34:24;;;;;;;;;;;15.00;99.90;;;;;;4997213;28;19955;-72
2022/07/06 04:36:49;;;;;;;;;;;15.00;99.90;;;;;;4998391;28;19968;-72
2022/07/06 04:39:15;;;;;;;;;;;15.10;99.90;;;;;;4998605;28;19956;-72
2022/07/06 04:41:40;;;;;;;;;;;15.10;99.90;;;;;;4997210;28;20369;-72
2022/07/06 04:44:06;;;;;;;;;;;15.10;99.90;;;;;;4998657;28;19964;-72
2022/07/06 04:46:31;;;;;;;;;;;15.10;99.90;;;;;;4998925;28;20383;-72
2022/07/06 04:48:57;;;;;;;;;;;15.10;99.90;;;;;;5000607;28;19956;-72
2022/07/06 04:51:22;;;;;;;;;;;15.20;99.90;;;;;;5001103;28;20434;-71
2022/07/06 04:53:48;;;;;;;;;;;15.10;99.90;;;;;;4999335;28;19905;-71
2022/07/06 04:56:13;;;;;;;;;;;15.20;99.90;;;;;;4998768;28;19916;-72
2022/07/06 04:58:39;;;;;;;;;;;15.20;99.90;;;;;;4999058;28;19905;-72
2022/07/06 05:01:04;;;;;;;;;;;15.20;99.90;;;;;;4998501;28;19906;-71
2022/07/06 05:03:30;;;;;;;;;;;15.20;99.90;;;;;;4998114;28;20272;-71
2022/07/06 05:05:56;;;;;;;;;;;15.20;99.90;;;;;;4996900;28;20008;-72
2022/07/06 05:08:21;;;;;;;;;;;15.30;99.90;;;;;;4997120;28;19965;-73
2022/07/06 05:10:47;;;;;;;;;;;15.30;99.90;;;;;;4997073;28;20351;-72
2022/07/06 05:13:13;;;;;;;;;;;15.40;99.90;;;;;;5001402;28;19956;-72
2022/07/06 05:15:38;;;;;;;;;;;15.40;99.90;;;;;;4997395;28;20298;-72
2022/07/06 05:18:04;;;;;;;;;;;15.50;99.90;;;;;;4999487;28;19910;-72
2022/07/06 05:20:29;;;;;;;;;;;15.50;99.90;;;;;;4998020;28;19906;-72
2022/07/06 05:22:55;;;;;;;;;;;15.60;99.90;;;;;;4999874;28;19906;-72
2022/07/06 05:25:21;;;;;;;;;;;15.50;99.90;;;;;;5000864;28;19988;-71
2022/07/06 05:27:46;;;;;;;;;;;15.60;99.90;;;;;;4999955;28;20289;-71
2022/07/06 05:30:12;;;;;;;;;;;15.70;99.90;;;;;;5002286;28;19912;-72
2022/07/06 05:32:38;;;;;;;;;;;15.70;99.90;;;;;;5000340;28;19906;-71
2022/07/06 05:35:03;;;;;;;;;;;15.80;99.90;;;;;;5003436;28;19906;-71
2022/07/06 05:37:29;;;;;;;;;;;15.80;99.90;;;;;;5005448;28;19933;-71
2022/07/06 05:39:54;;;;;;;;;;;15.80;99.90;;;;;;5006862;28;19906;-71
2022/07/06 05:42:20;;;;;;;;;;;15.90;99.90;;;;;;5003065;28;19906;-72
2022/07/06 05:44:45;;;;;;;;;;;15.90;99.90;;;;;;4998050;28;19906;-72
2022/07/06 05:50:14;;;;;;;;;;;16.00;99.90;;;;;;4986634;28;19906;-72
2022/07/06 05:52:44;;;;;;;;;;;16.10;99.90;;;;;;4997556;28;19929;-72
2022/07/06 05:55:11;;;;;;;;;;;16.20;99.90;;;;;;4995922;28;19906;-72
2022/07/06 05:57:37;;;;;;;;;;;16.20;99.90;;;;;;5013245;28;19914;-72
2022/07/06 06:00:03;;;;;;;;;;;16.30;99.90;;;;;;4997917;28;20054;-72
2022/07/06 06:02:42;;;;;;;;;;;16.40;99.90;;;;;;4998387;28;19928;-72
2022/07/06 06:05:10;;;;;;;;;;;16.40;99.90;;;;;;4998116;28;19910;-72
2022/07/06 06:07:36;;;;;;;;;;;16.40;99.90;;;;;;4997343;28;19905;-72
2022/07/06 06:10:05;;;;;;;;;;;16.30;99.90;;;;;;4998261;28;19928;-71
2022/07/06 06:12:30;;;;;;;;;;;16.30;99.90;;;;;;5000081;28;19955;-71
2022/07/06 06:14:56;;;;;;;;;;;16.20;99.90;;;;;;5002245;28;20012;-71
2022/07/06 06:17:21;;;;;;;;;;;16.20;99.90;;;;;;5001967;28;19941;-71
2022/07/06 06:19:47;;;;;;;;;;;16.20;99.90;;;;;;5000795;28;20389;-71
2022/07/06 06:22:13;;;;;;;;;;;16.20;99.90;;;;;;4998825;28;19953;-71
2022/07/06 06:24:38;;;;;;;;;;;16.20;99.90;;;;;;4998435;28;19912;-71
2022/07/06 06:27:04;;;;;;;;;;;16.20;99.90;;;;;;4998410;28;20359;-71
2022/07/06 06:29:30;;;;;;;;;;;16.20;99.90;;;;;;4996431;28;19968;-71
2022/07/06 06:31:55;;;;;;;;;;;16.30;99.90;;;;;;4994531;28;20382;-71
2022/07/06 06:34:21;;;;;;;;;;;16.20;99.90;;;;;;4999932;28;19913;-72
2022/07/06 06:36:50;;;;;;;;;;;16.30;99.90;;;;;;4999670;28;19930;-72
2022/07/06 06:39:16;;;;;;;;;;;16.40;99.90;;;;;;5011523;28;19909;-71
2022/07/06 06:41:41;;;;;;;;;;;16.50;99.90;;;;;;5004323;28;19912;-71
2022/07/06 06:44:07;;;;;;;;;;;16.50;99.90;;;;;;4999630;28;19906;-71
2022/07/06 06:46:36;;;;;;;;;;;16.60;99.90;;;;;;4999012;28;19906;-72
2022/07/06 06:49:01;;;;;;;;;;;16.50;99.90;;;;;;4999955;28;19999;-72
2022/07/06 06:51:27;;;;;;;;;;;16.40;99.90;;;;;;4999441;28;19906;-72
2022/07/06 06:53:52;;;;;;;;;;;16.40;99.90;;;;;;4999702;28;19973;-71
2022/07/06 06:56:18;;;;;;;;;;;16.50;99.90;;;;;;4998237;28;19933;-72
2022/07/06 06:58:43;;;;;;;;;;;16.70;99.90;;;;;;4998386;28;19906;-72
2022/07/06 07:01:09;;;;;;;;;;;16.80;99.90;;;;;;4999958;28;19906;-71
2022/07/06 07:03:34;;;;;;;;;;;16.90;99.90;;;;;;4997637;28;19906;-71
2022/07/06 07:06:00;;;;;;;;;;;17.00;99.90;;;;;;4996716;28;19948;-71
2022/07/06 07:08:26;;;;;;;;;;;16.90;99.90;;;;;;4996296;28;19916;-72
2022/07/06 07:10:51;;;;;;;;;;;17.10;99.90;;;;;;4998036;28;19905;-72
2022/07/06 07:13:17;;;;;;;;;;;17.20;99.90;;;;;;4999824;28;20282;-72
2022/07/06 07:15:43;;;;;;;;;;;17.20;99.90;;;;;;4999773;28;19928;-71
2022/07/06 07:18:08;;;;;;;;;;;17.20;99.90;;;;;;4998594;28;19977;-71
2022/07/06 07:20:34;;;;;;;;;;;17.30;99.90;;;;;;5000743;28;19910;-71
2022/07/06 07:23:00;;;;;;;;;;;17.30;99.90;;;;;;5000782;28;19975;-72
2022/07/06 07:25:25;;;;;;;;;;;17.50;99.90;;;;;;5001354;28;20363;-72
2022/07/06 07:27:51;;;;;;;;;;;17.50;99.90;;;;;;4999592;28;20001;-72
2022/07/06 07:30:17;;;;;;;;;;;17.50;99.90;;;;;;4999101;28;19910;-71
2022/07/06 07:32:42;;;;;;;;;;;17.50;99.90;;;;;;5015045;28;19906;-72
2022/07/06 07:35:08;;;;;;;;;;;17.60;99.90;;;;;;4997840;28;19906;-72
2022/07/06 07:37:34;;;;;;;;;;;17.60;99.90;;;;;;4995154;28;19917;-72
2022/07/06 07:39:59;;;;;;;;;;;17.50;99.90;;;;;;4994100;28;19914;-72
2022/07/06 07:42:25;;;;;;;;;;;17.40;99.90;;;;;;4995679;28;19905;-71
2022/07/06 07:44:51;;;;;;;;;;;17.50;99.90;;;;;;5023848;23;20007;-72
2022/07/06 07:47:16;;;;;;;;;;;17.50;99.90;;;;;;5013060;28;19905;-70
2022/07/06 07:49:42;;;;;;;;;;;17.40;99.90;;;;;;5014252;28;20325;-71
2022/07/06 07:52:08;;;;;;;;;;;17.30;99.90;;;;;;5014479;28;19991;-72
2022/07/06 07:54:34;;;;;;;;;;;17.40;99.90;;;;;;5013221;28;20298;-71
2022/07/06 07:57:00;;;;;;;;;;;17.30;99.90;;;;;;5013778;28;20016;-71
2022/07/06 07:59:25;;;;;;;;;;;17.20;99.90;;;;;;5014484;28;19996;-71
2022/07/06 08:01:51;;;;;;;;;;;17.20;99.90;;;;;;5012697;28;19913;-71
2022/07/06 08:04:17;;;;;;;;;;;17.30;99.90;;;;;;5013984;28;19955;-71
2022/07/06 08:06:42;;;;;;;;;;;17.30;99.90;;;;;;5014862;28;19905;-71
2022/07/06 08:09:08;;;;;;;;;;;17.40;99.90;;;;;;5015807;28;20369;-72
2022/07/06 08:11:34;;;;;;;;;;;17.50;99.90;;;;;;5013949;28;20274;-72
2022/07/06 08:14:00;;;;;;;;;;;17.70;99.90;;;;;;5016739;28;19916;-72
2022/07/06 08:16:25;;;;;;;;;;;17.70;99.90;;;;;;5018675;28;19910;-72
2022/07/06 08:18:51;;;;;;;;;;;17.80;99.90;;;;;;5023560;28;20023;-71
2022/07/06 08:21:17;;;;;;;;;;;17.90;99.90;;;;;;5023068;28;19905;-72
2022/07/06 08:23:43;;;;;;;;;;;18.00;99.90;;;;;;5018858;28;19905;-71
2022/07/06 08:26:09;;;;;;;;;;;18.10;99.90;;;;;;5018284;28;19912;-71
2022/07/06 08:28:34;;;;;;;;;;;18.10;99.90;;;;;;5017740;28;19905;-71
2022/07/06 08:31:00;;;;;;;;;;;18.10;99.90;;;;;;5017130;28;19937;-71
2022/07/06 08:33:26;;;;;;;;;;;18.10;99.90;;;;;;5017314;28;19909;-71
2022/07/06 08:35:51;;;;;;;;;;;18.00;99.90;;;;;;5017294;28;19996;-71
2022/07/06 08:38:17;;;;;;;;;;;18.10;99.90;;;;;;5016045;28;19959;-71
2022/07/06 08:40:43;;;;;;;;;;;18.30;99.90;;;;;;5016949;28;19993;-71
2022/07/06 08:43:09;;;;;;;;;;;18.40;99.90;;;;;;5016993;28;19959;-71
2022/07/06 08:45:35;;;;;;;;;;;18.40;99.90;;;;;;5016954;28;19914;-71
2022/07/06 08:48:04;;;;;;;;;;;18.40;99.90;;;;;;5016977;28;19960;-71
2022/07/06 08:50:29;;;;;;;;;;;18.60;99.90;;;;;;5016789;28;19910;-71
2022/07/06 08:52:55;;;;;;;;;;;18.80;99.90;;;;;;5016509;28;19920;-71
2022/07/06 08:55:20;;;;;;;;;;;18.90;99.90;;;;;;5016328;28;19909;-71
2022/07/06 08:57:46;;;;;;;;;;;19.00;99.90;;;;;;5015720;28;19910;-70
2022/07/06 09:00:12;;;;;;;;;;;19.10;99.90;;;;;;5016968;28;19905;-70
2022/07/06 09:02:39;;;;;;;;;;;19.30;99.90;;;;;;5016437;28;19910;-71
2022/07/06 09:05:05;;;;;;;;;;;19.40;99.90;;;;;;5016188;28;19912;-70
2022/07/06 09:07:30;;;;;;;;;;;19.30;99.90;;;;;;5016042;28;19905;-70
2022/07/06 09:09:57;;;;;;;;;;;19.30;99.90;;;;;;5016899;28;19912;-70
2022/07/06 09:12:25;;;;;;;;;;;19.20;99.90;;;;;;5016966;28;19906;-70
2022/07/06 09:14:53;;;;;;;;;;;19.10;99.90;;;;;;5017723;28;20328;-70
2022/07/06 09:17:19;;;;;;;;;;;19.20;99.90;;;;;;5017461;28;20282;-70
2022/07/06 09:19:45;;;;;;;;;;;19.30;99.90;;;;;;5017803;28;19905;-70
2022/07/06 09:22:24;;;;;;;;;;;19.40;99.90;;;;;;5018486;28;19909;-72
2022/07/06 09:24:50;;;;;;;;;;;19.60;99.90;;;;;;5016360;28;19909;-72
2022/07/06 09:27:17;;;;;;;;;;;19.60;99.90;;;;;;5017518;28;19912;-70
2022/07/06 09:29:43;;;;;;;;;;;19.50;99.90;;;;;;5017763;28;19905;-71
2022/07/06 09:32:08;;;;;;;;;;;19.50;99.90;;;;;;5016371;28;19905;-71
2022/07/06 09:34:44;;;;;;;;;;;19.20;99.90;;;;;;5018980;28;19905;-72
2022/07/06 09:37:09;;;;;;;;;;;19.00;99.90;;;;;;5021001;28;19913;-71
2022/07/06 09:39:35;;;;;;;;;;;19.00;99.90;;;;;;5018994;28;19905;-71
2022/07/06 09:42:03;;;;;;;;;;;19.10;99.90;;;;;;5019015;28;19905;-71
2022/07/06 09:44:32;;;;;;;;;;;19.10;99.90;;;;;;5021860;28;20000;-71
2022/07/06 09:46:59;;;;;;;;;;;19.10;99.90;;;;;;5016948;28;20000;-71
2022/07/06 09:49:25;;;;;;;;;;;19.20;99.90;;;;;;5015829;28;19906;-71
2022/07/06 09:51:51;;;;;;;;;;;19.20;99.90;;;;;;5017058;28;19905;-70
2022/07/06 09:54:17;;;;;;;;;;;19.10;99.90;;;;;;5017006;28;19932;-70
2022/07/06 09:56:44;;;;;;;;;;;19.30;99.90;;;;;;5017145;28;20388;-70
2022/07/06 09:59:14;;;;;;;;;;;19.40;99.90;;;;;;5016560;28;19932;-71
2022/07/06 10:01:41;;;;;;;;;;;19.50;99.90;;;;;;5015372;28;19906;-72
2022/07/06 10:04:07;;;;;;;;;;;19.50;99.90;;;;;;5016328;28;19906;-71
2022/07/06 10:06:33;;;;;;;;;;;19.50;99.90;;;;;;5016376;28;19996;-70
2022/07/06 10:08:59;;;;;;;;;;;19.40;99.90;;;;;;5014475;28;19949;-70
2022/07/06 10:11:25;;;;;;;;;;;19.40;99.90;;;;;;5015567;28;19909;-72
2022/07/06 10:13:54;;;;;;;;;;;19.50;99.90;;;;;;5015312;28;19996;-71
2022/07/06 10:16:21;;;;;;;;;;;19.60;99.90;;;;;;5018773;28;20012;-71
2022/07/06 10:18:47;;;;;;;;;;;19.60;99.90;;;;;;5017279;28;20012;-71
2022/07/06 10:21:12;;;;;;;;;;;19.60;99.90;;;;;;5013714;28;19914;-71
2022/07/06 10:23:38;;;;;;;;;;;19.50;99.90;;;;;;5013694;28;19913;-71
2022/07/06 10:26:04;;;;;;;;;;;19.30;99.90;;;;;;5015289;28;20365;-71
2022/07/06 10:28:29;;;;;;;;;;;19.30;99.90;;;;;;5014926;28;20035;-71
2022/07/06 10:30:55;;;;;;;;;;;19.60;99.90;;;;;;5015149;28;19912;-71
2022/07/06 10:33:21;;;;;;;;;;;20.00;99.90;;;;;;5014712;28;20308;-71
2022/07/06 10:35:47;;;;;;;;;;;20.00;99.90;;;;;;5016285;28;19909;-71
2022/07/06 10:38:13;;;;;;;;;;;20.30;99.90;;;;;;5014648;28;20378;-71
2022/07/06 10:43:30;;;;;;;;;;;20.40;99.90;;;;;;5014816;28;20275;-71
2022/07/06 10:45:56;;;;;;;;;;;20.40;99.90;;;;;;5006054;28;20008;-71
2022/07/06 10:48:22;;;;;;;;;;;20.40;99.90;;;;;;5014824;28;19952;-71
2022/07/06 10:50:52;;;;;;;;;;;20.30;99.90;;;;;;5015356;28;19905;-71
2022/07/06 10:53:22;;;;;;;;;;;20.20;99.90;;;;;;5013582;28;19936;-71
2022/07/06 10:55:50;;;;;;;;;;;20.10;99.90;;;;;;5018703;28;19906;-71
2022/07/06 10:58:34;;;;;;;;;;;19.70;99.90;;;;;;5008705;28;20286;-71
2022/07/06 11:01:00;;;;;;;;;;;19.60;99.90;;;;;;4995443;28;19971;-71
2022/07/06 11:03:42;;;;;;;;;;;19.60;99.90;;;;;;4994637;28;20421;-71
2022/07/06 11:06:08;;;;;;;;;;;19.60;99.90;;;;;;4995573;28;19951;-71
2022/07/06 11:08:43;;;;;;;;;;;19.80;99.90;;;;;;4993677;28;20267;-71
2022/07/06 11:11:16;;;;;;;;;;;19.90;99.90;;;;;;5004350;28;19990;-71
2022/07/06 11:13:52;;;;;;;;;;;19.70;99.90;;;;;;5005758;28;20012;-71
2022/07/06 11:16:18;;;;;;;;;;;19.60;99.90;;;;;;5013920;28;19913;-71
2022/07/06 11:18:48;;;;;;;;;;;19.60;99.90;;;;;;5013973;28;20359;-70
2022/07/06 11:21:23;;;;;;;;;;;19.70;99.90;;;;;;5012079;28;19921;-71
2022/07/06 11:23:49;;;;;;;;;;;19.70;99.90;;;;;;5002912;28;19906;-70
2022/07/06 11:26:16;;;;;;;;;;;19.60;99.90;;;;;;4994691;28;20003;-70
2022/07/06 11:28:42;;;;;;;;;;;19.60;99.90;;;;;;4996153;28;19995;-71
2022/07/06 11:31:07;;;;;;;;;;;19.60;99.90;;;;;;4999682;28;20367;-70
2022/07/06 11:33:33;;;;;;;;;;;19.60;99.90;;;;;;4994827;28;19977;-70
2022/07/06 11:36:18;;;;;;;;;;;19.60;99.90;;;;;;4994741;28;19928;-70
2022/07/06 11:38:44;;;;;;;;;;;19.40;99.90;;;;;;4996537;28;20362;-70
2022/07/06 11:41:11;;;;;;;;;;;19.30;99.90;;;;;;5009315;28;19916;-70
2022/07/06 11:43:37;;;;;;;;;;;19.40;99.90;;;;;;4994181;28;19988;-70
2022/07/06 11:46:03;;;;;;;;;;;19.40;99.90;;;;;;4994196;28;20359;-70
2022/07/06 11:48:28;;;;;;;;;;;19.60;99.90;;;;;;5014462;28;19951;-70
2022/07/06 11:51:01;;;;;;;;;;;19.80;99.90;;;;;;5016853;28;19906;-69
2022/07/06 11:53:26;;;;;;;;;;;19.90;99.90;;;;;;5017517;28;19912;-69
2022/07/06 11:55:52;;;;;;;;;;;19.90;99.90;;;;;;5017670;28;20282;-69
2022/07/06 11:58:22;;;;;;;;;;;19.90;99.90;;;;;;5011999;28;19914;-69
2022/07/06 12:01:07;;;;;;;;;;;19.90;99.90;;;;;;5011122;28;19973;-70
2022/07/06 12:03:34;;;;;;;;;;;19.80;99.90;;;;;;5017640;28;19952;-70
2022/07/06 12:06:12;;;;;;;;;;;20.00;99.90;;;;;;5017558;28;19913;-70
2022/07/06 12:09:04;;;;;;;;;;;20.20;99.90;;;;;;4998469;28;19992;-70
2022/07/06 12:11:30;;;;;;;;;;;20.30;99.90;;;;;;4989449;28;19928;-70
2022/07/06 12:13:57;;;;;;;;;;;20.60;99.90;;;;;;5007808;28;19913;-70
2022/07/06 12:16:29;;;;;;;;;;;20.70;99.90;;;;;;5003539;28;19917;-70
2022/07/06 12:18:54;;;;;;;;;;;20.60;99.90;;;;;;5012302;28;19912;-70
2022/07/06 12:21:23;;;;;;;;;;;20.70;99.90;;;;;;5017590;28;19906;-70
2022/07/06 12:23:50;;;;;;;;;;;20.90;99.90;;;;;;5016649;28;19913;-70
2022/07/06 12:26:17;;;;;;;;;;;20.90;99.90;;;;;;5019154;28;19906;-69
2022/07/06 12:28:44;;;;;;;;;;;20.80;99.90;;;;;;5020279;28;19991;-70
2022/07/06 12:31:10;;;;;;;;;;;20.90;99.90;;;;;;5025181;28;19909;-70
2022/07/06 12:33:36;;;;;;;;;;;20.90;99.90;;;;;;5026706;28;20408;-70
2022/07/06 12:36:12;;;;;;;;;;;21.00;99.90;;;;;;5023156;28;19905;-70
2022/07/06 12:38:44;;;;;;;;;;;21.10;99.90;;;;;;5022736;28;19996;-70
2022/07/06 12:41:09;;;;;;;;;;;21.20;99.90;;;;;;5026562;28;19915;-70
2022/07/06 12:43:36;;;;;;;;;;;21.20;99.90;;;;;;5026450;28;19995;-70
2022/07/06 12:46:20;;;;;;;;;;;21.10;99.90;;;;;;5025373;28;20004;-70
2022/07/06 12:48:52;;;;;;;;;;;21.00;99.90;;;;;;5028328;28;19920;-69
2022/07/06 12:51:18;;;;;;;;;;;20.90;99.90;;;;;;5026271;28;19987;-70
2022/07/06 12:53:43;;;;;;;;;;;20.80;99.90;;;;;;5029672;28;20382;-70
2022/07/06 12:56:10;;;;;;;;;;;20.90;99.90;;;;;;5024492;28;19967;-69
2022/07/06 12:58:35;;;;;;;;;;;20.90;99.90;;;;;;5022466;28;20267;-69
2022/07/06 13:01:01;;;;;;;;;;;20.80;99.90;;;;;;5025898;28;19979;-70
2022/07/06 13:03:27;;;;;;;;;;;20.80;99.90;;;;;;5021950;28;19959;-70
2022/07/06 13:05:53;;;;;;;;;;;20.70;99.90;;;;;;5024731;28;20286;-70
2022/07/06 13:08:19;;;;;;;;;;;20.80;99.90;;;;;;5026579;28;19909;-70
2022/07/06 13:10:45;;;;;;;;;;;21.00;99.90;;;;;;5027439;28;19912;-70
2022/07/06 13:13:10;;;;;;;;;;;21.10;99.90;;;;;;5030753;28;19905;-70
2022/07/06 13:15:36;;;;;;;;;;;21.10;99.90;;;;;;5027753;28;19956;-70
2022/07/06 13:18:01;;;;;;;;;;;21.20;99.90;;;;;;5025678;28;19909;-70
2022/07/06 13:20:28;;;;;;;;;;;21.40;99.90;;;;;;5026300;28;19905;-70
2022/07/06 13:22:54;;;;;;;;;;;21.30;99.90;;;;;;5021509;28;19905;-70
2022/07/06 13:25:19;;;;;;;;;;;21.20;99.90;;;;;;5026754;28;20262;-70
2022/07/06 13:27:45;;;;;;;;;;;21.10;99.90;;;;;;5019360;28;19916;-70
2022/07/06 13:30:11;;;;;;;;;;;20.90;99.90;;;;;;5025730;28;19905;-70
2022/07/06 13:32:37;;;;;;;;;;;20.90;99.90;;;;;;5030570;28;19931;-70
2022/07/06 13:35:02;;;;;;;;;;;20.60;99.90;;;;;;5024681;28;20450;-70
2022/07/06 13:37:28;;;;;;;;;;;20.60;99.90;;;;;;5024588;28;19909;-71
2022/07/06 13:39:54;;;;;;;;;;;20.60;99.90;;;;;;5024509;28;20393;-71
2022/07/06 13:42:19;;;;;;;;;;;20.50;99.90;;;;;;5023651;28;19974;-70
2022/07/06 13:44:45;;;;;;;;;;;20.50;99.90;;;;;;5023887;28;20418;-71
2022/07/06 13:47:11;;;;;;;;;;;20.50;99.90;;;;;;5022872;28;20438;-71
2022/07/06 13:49:37;;;;;;;;;;;20.30;99.90;;;;;;5025495;28;19991;-71
2022/07/06 13:52:03;;;;;;;;;;;20.30;99.90;;;;;;5023497;28;19940;-71
2022/07/06 13:54:29;;;;;;;;;;;20.20;99.90;;;;;;5024436;28;19905;-71
2022/07/06 13:56:55;;;;;;;;;;;20.30;99.90;;;;;;5026570;28;19909;-71
2022/07/06 13:59:20;;;;;;;;;;;20.50;99.90;;;;;;5034421;28;19912;-71
2022/07/06 14:01:46;;;;;;;;;;;20.60;99.90;;;;;;5035147;28;19912;-71
2022/07/06 14:04:11;;;;;;;;;;;20.70;99.90;;;;;;5036232;28;20326;-70
2022/07/06 14:06:37;;;;;;;;;;;20.70;99.90;;;;;;5032334;28;19909;-71
2022/07/06 14:09:02;;;;;;;;;;;20.70;99.90;;;;;;5022541;28;19968;-70
2022/07/06 14:11:28;;;;;;;;;;;20.70;99.90;;;;;;5024038;28;19913;-71
2022/07/06 14:13:54;;;;;;;;;;;20.70;99.90;;;;;;5023519;28;19912;-71
2022/07/06 14:16:19;;;;;;;;;;;20.90;99.90;;;;;;5025390;28;19924;-71
2022/07/06 14:18:45;;;;;;;;;;;20.90;99.90;;;;;;5031583;28;19941;-71
2022/07/06 14:21:10;;;;;;;;;;;20.90;99.80;;;;;;5024267;28;19909;-70